Latest Weather Observations for Tewantin

IDQ60801

Issued at 6:32 pm EST Wednesday 22 February 2017 (issued every 30 minutes, with the page automatically refreshed every 10 minutes)

About weather observations | Map of weather stations | Latest weather observations for QLD | Other Formats
Station Details ID: 040908 Name: TEWANTIN RSL PARK Lat: -26.39 Lon: 153.04 Height: 6.4 m
Data from the previous 72 hours. | See also: Recent months at Tewantin
Date/Time
EST
Temp
°C
App
Temp
°C
Dew
Point
°C
Rel
Hum
%
Delta-T
°C
Wind Press
QNH
hPa
Press
MSL
hPa
Rain since
9am
mm
Dir  Spd
km/h
Gust
km/h
Spd
kts
Gust
kts
22/06:30pm 25.7 25.5 16.8 58 5.5 SE 13 28 7 15 1017.5 1017.5 0.0
22/06:00pm 25.8 25.3 16.9 58 5.5 SSE 15 24 8 13 1017.3 1017.3 0.0
22/05:30pm 26.0 24.8 17.1 58 5.5 SE 19 32 10 17 1017.1 1017.1 0.0
22/05:00pm 26.1 25.3 17.2 58 5.5 SE 17 32 9 17 1017.0 1017.0 0.0
22/04:30pm 26.7 25.8 16.9 55 6.1 SSE 17 35 9 19 1016.8 1016.8 0.0
22/04:00pm 27.0 26.5 16.9 54 6.3 SSE 15 26 8 14 1016.6 1016.6 0.0
22/03:30pm 26.8 26.0 18.1 59 5.5 SE 19 35 10 19 1016.7 1016.7 0.0
22/03:00pm 26.9 26.4 17.7 57 5.8 SSE 17 30 9 16 1016.8 1016.8 0.0
22/02:30pm 27.4 27.3 17.8 55 6.1 SE 15 24 8 13 1016.9 1016.9 0.0
22/02:00pm 27.0 25.8 17.5 56 6.0 SE 20 35 11 19 1017.3 1017.3 0.0
22/01:30pm 27.6 26.2 18.0 55 6.1 SE 22 33 12 18 1017.4 1017.4 0.0
22/01:00pm 27.6 26.5 17.2 53 6.5 SE 19 35 10 19 1017.6 1017.6 0.0
22/12:30pm 27.2 25.6 17.4 55 6.2 SE 22 33 12 18 1017.8 1017.8 0.0
22/12:00pm 27.6 26.1 17.7 54 6.2 SE 22 39 12 21 1018.3 1018.3 0.0
22/11:30am 28.0 26.0 18.4 56 6.1 SE 26 39 14 21 1018.4 1018.4 0.0
22/11:00am 27.8 26.9 18.2 56 6.1 SE 20 37 11 20 1018.5 1018.5 0.0
22/10:30am 27.1 25.3 18.7 60 5.4 ESE 26 41 14 22 1018.6 1018.6 0.0
22/10:00am 27.4 26.6 18.1 57 5.9 SE 19 32 10 17 1018.9 1018.9 0.0
22/09:30am 28.8 27.9 18.3 53 6.7 SE 20 30 11 16 1018.8 1018.8 0.0
22/09:00am 27.3 26.5 18.0 56 5.9 SE 19 32 10 17 1018.8 1018.8 0.0
22/08:30am 27.6 27.4 18.6 58 5.8 SE 17 28 9 15 1018.6 1018.6 0.0
22/08:00am 27.3 26.9 18.9 60 5.4 ESE 19 32 10 17 1018.5 1018.5 0.0
22/07:30am 26.5 26.5 18.9 63 4.9 SE 17 30 9 16 1018.4 1018.4 0.0
22/07:00am 26.3 26.6 17.9 60 5.3 SE 13 26 7 14 1018.3 1018.3 0.0
22/06:30am 26.0 25.9 18.7 64 4.7 SE 17 28 9 15 1017.3 1017.3 0.0
22/06:00am 25.4 26.3 18.3 65 4.5 SSE 11 20 6 11 1017.6 1017.6 0.0
22/05:30am 25.4 25.9 18.3 65 4.5 SE 13 22 7 12 1017.3 1017.3 0.0
22/05:00am 25.2 26.1 18.4 66 4.3 SSE 11 17 6 9 1017.1 1017.1 0.0
22/04:30am 25.2 26.1 18.4 66 4.3 SSE 11 19 6 10 1016.8 1016.8 0.0
22/04:00am 25.1 26.0 18.3 66 4.3 SSE 11 20 6 11 1016.7 1016.7 0.0
22/03:30am 25.2 25.9 17.9 64 4.6 SSE 11 19 6 10 1016.4 1016.4 0.0
22/03:00am 25.2 25.9 17.9 64 4.6 SE 11 17 6 9 1016.6 1016.6 0.0
22/02:30am 25.3 25.6 18.0 64 4.6 SE 13 20 7 11 1016.6 1016.6 0.0
22/02:00am 25.3 25.5 17.7 62 4.8 SSE 13 22 7 12 1017.0 1017.0 0.0
22/01:30am 25.3 25.7 18.2 64 4.5 SE 13 19 7 10 1017.0 1017.0 0.0
22/01:00am 25.3 26.1 18.2 64 4.5 SE 11 20 6 11 1017.0 1017.0 0.0
22/12:30am 25.5 26.0 18.4 65 4.5 SE 13 24 7 13 1017.2 1017.2 0.0
22/12:00am 25.8 25.5 18.2 63 4.8 ESE 17 28 9 15 1017.3 1017.3 0.0
 
Date/Time
EST
Temp
°C
App
Temp
°C
Dew
Point
°C
Rel
Hum
%
Delta-T
°C
Wind Press
QNH
hPa
Press
MSL
hPa
Rain since
9am
mm
Dir  Spd
km/h
Gust
km/h
Spd
kts
Gust
kts
21/11:30pm 25.9 25.2 18.6 64 4.6 ESE 20 30 11 16 1017.4 1017.4 0.0
21/11:00pm 26.0 25.4 18.4 63 4.8 ESE 19 32 10 17 1017.4 1017.4 0.0
21/10:30pm 26.1 25.1 18.0 61 5.1 ESE 20 37 11 20 1017.6 1017.6 0.0
21/10:00pm 26.2 25.4 18.1 61 5.1 ESE 19 30 10 16 1017.7 1017.7 0.0
21/09:30pm 26.2 25.9 18.3 61 5.0 SE 17 33 9 18 1018.0 1018.0 0.0
21/09:00pm 26.1 26.1 18.2 61 5.0 ESE 15 24 8 13 1017.7 1017.7 0.0
21/08:30pm 26.2 26.1 17.8 60 5.3 SE 15 22 8 12 1017.7 1017.7 0.0
21/08:00pm 26.4 26.2 17.7 58 5.5 ESE 15 22 8 12 1017.4 1017.4 0.0
21/07:30pm 26.5 26.2 19.6 66 4.5 ESE 20 32 11 17 1017.1 1017.1 0.0
21/07:00pm 26.6 27.5 20.9 71 3.8 ESE 17 26 9 14 1016.9 1016.9 0.0
21/06:30pm 26.8 27.5 20.4 68 4.2 ESE 17 28 9 15 1016.8 1016.8 0.0
21/06:00pm 26.9 27.1 20.5 68 4.2 ESE 20 33 11 18 1016.3 1016.3 0.0
21/05:30pm 27.1 27.6 20.9 69 4.1 SE 19 26 10 14 1016.1 1016.1 0.0
21/05:00pm 27.2 27.1 20.0 64 4.7 ESE 20 32 11 17 1015.7 1015.7 0.0
21/04:30pm 27.7 28.1 19.8 62 5.1 SSE 17 28 9 15 1015.3 1015.3 0.0
21/04:00pm 27.9 27.9 19.7 61 5.3 SSE 19 32 10 17 1015.2 1015.2 0.0
21/03:30pm 28.0 26.9 19.5 60 5.5 SE 24 37 13 20 1015.1 1015.1 0.0
21/03:00pm 28.4 27.8 18.5 55 6.3 SE 19 33 10 18 1015.2 1015.2 0.0
21/02:30pm 29.1 29.0 20.0 58 6.0 SE 20 33 11 18 1015.1 1015.1 0.0
21/02:00pm 28.9 28.7 19.8 58 5.9 SE 20 35 11 19 1015.4 1015.4 0.0
21/01:30pm 29.1 28.5 18.5 52 6.8 SE 19 28 10 15 1015.4 1015.4 0.0
21/01:00pm 29.0 28.2 19.3 55 6.3 SE 22 33 12 18 1015.7 1015.7 0.0
21/12:30pm 28.9 28.2 19.5 57 6.1 ESE 22 32 12 17 1015.9 1015.9 0.0
21/12:00pm 29.0 29.3 20.4 59 5.7 ESE 19 30 10 16 1016.2 1016.2 0.0
21/11:30am 29.2 29.7 20.1 58 6.0 SE 17 28 9 15 1016.2 1016.2 0.0
21/11:00am 29.5 30.2 20.4 58 6.0 SE 17 28 9 15 1016.4 1016.4 0.0
21/10:30am 29.3 30.3 21.0 61 5.5 SE 17 28 9 15 1016.5 1016.5 0.0
21/10:00am 29.1 29.6 20.0 58 6.0 SE 17 22 9 12 1016.7 1016.7 0.0
21/09:30am 28.5 29.5 20.2 60 5.5 SE 15 26 8 14 1016.9 1016.9 0.0
21/09:00am 29.3 30.8 20.5 59 5.8 SE 13 28 7 15 1016.9 1016.9 0.2
21/08:30am 28.8 30.6 20.3 60 5.6 SSE 11 22 6 12 1016.5 1016.5 0.2
21/08:00am 27.8 29.7 21.3 67 4.3 S 13 20 7 11 1016.3 1016.3 0.2
21/07:30am 26.5 29.1 21.9 76 3.1 S 11 17 6 9 1016.0 1016.0 0.2
21/07:00am 25.2 28.1 21.7 81 2.3 S 9 13 5 7 1015.9 1015.9 0.2
21/06:30am 23.8 27.3 22.2 91 1.1 SSW 7 11 4 6 1015.4 1015.4 0.2
21/06:00am 23.7 27.2 22.1 91 1.1 SSW 7 11 4 6 1014.9 1014.9 0.2
21/05:30am 23.4 27.0 22.0 92 0.9 SSW 6 9 3 5 1014.6 1014.6 0.2
21/05:00am 23.5 27.1 22.3 93 0.8 SSW 7 9 4 5 1014.0 1014.0 0.2
21/04:30am 23.6 26.6 22.0 91 1.1 SSW 9 11 5 6 1013.7 1013.7 0.2
21/04:00am 23.8 27.0 22.4 92 0.9 SSW 9 11 5 6 1013.3 1013.3 0.2
21/03:30am 23.8 27.4 22.4 92 0.9 SSW 7 11 4 6 1013.1 1013.1 0.2
21/03:00am 23.9 27.6 22.5 92 0.9 SW 7 11 4 6 1012.9 1012.9 0.2
21/02:30am 24.0 28.0 22.1 89 1.3 SW 4 7 2 4 1012.9 1012.9 0.2
21/02:00am 24.3 27.9 22.4 89 1.3 SSW 7 11 4 6 1013.2 1013.2 0.2
21/01:30am 24.2 27.7 22.1 88 1.4 SSW 7 9 4 5 1013.4 1013.4 0.2
21/01:00am 24.1 27.5 22.0 88 1.4 S 7 13 4 7 1013.8 1013.8 0.2
21/12:30am 24.5 27.6 22.2 87 1.5 SSW 9 13 5 7 1013.9 1013.9 0.2
21/12:00am 24.5 27.6 22.2 87 1.5 SSW 9 11 5 6 1014.1 1014.1 0.2
 
Date/Time
EST
Temp
°C
App
Temp
°C
Dew
Point
°C
Rel
Hum
%
Delta-T
°C
Wind Press
QNH
hPa
Press
MSL
hPa
Rain since
9am
mm
Dir  Spd
km/h
Gust
km/h
Spd
kts
Gust
kts
20/11:30pm 24.6 28.2 22.1 86 1.7 SW 6 7 3 4 1014.1 1014.1 0.2
20/11:00pm 24.9 28.9 22.0 84 1.9 SSW 4 7 2 4 1014.1 1014.1 0.2
20/10:30pm 24.9 28.3 21.6 82 2.2 SW 6 7 3 4 1014.2 1014.2 0.2
20/10:00pm 25.5 29.0 21.8 80 2.5 SSW 6 9 3 5 1014.2 1014.2 0.2
20/09:30pm 25.9 29.4 21.8 78 2.7 SSE 6 9 3 5 1014.0 1014.0 0.2
20/09:00pm 26.0 29.0 21.9 78 2.7 ESE 9 13 5 7 1013.7 1013.7 0.2
20/08:30pm 26.0 29.1 21.4 76 3.1 ESE 7 9 4 5 1013.3 1013.3 0.2
20/08:00pm 26.2 29.0 21.6 76 3.1 ESE 9 17 5 9 1012.8 1012.8 0.2
20/07:30pm 26.2 28.8 21.2 74 3.3 ESE 9 15 5 8 1012.3 1012.3 0.2
20/07:00pm 26.4 28.3 20.5 70 3.9 ESE 11 15 6 8 1011.7 1011.7 0.2
20/06:30pm 26.6 28.2 20.0 67 4.3 ESE 11 17 6 9 1011.4 1011.4 0.2
20/06:00pm 26.9 28.1 19.8 65 4.6 ESE 13 20 7 11 1010.8 1010.8 0.2
20/05:30pm 27.1 27.5 18.9 61 5.3 ESE 15 20 8 11 1010.3 1010.3 0.2
20/05:00pm 27.5 27.8 18.8 59 5.6 E 15 20 8 11 1009.8 1009.8 0.2
20/04:30pm 27.8 27.7 18.8 58 5.8 ESE 17 24 9 13 1009.4 1009.4 0.2
20/04:00pm 28.4 28.2 18.5 55 6.4 ESE 17 22 9 12 1009.3 1009.3 0.2
20/03:30pm 28.8 28.5 18.3 53 6.7 ESE 17 24 9 13 1009.2 1009.2 0.2
20/03:00pm 29.4 29.2 18.5 52 7.0 ESE 17 24 9 13 1009.2 1009.2 0.2
20/02:30pm 29.3 29.1 18.4 51 7.0 ESE 17 24 9 13 1009.3 1009.3 0.2
20/02:00pm 29.4 29.7 18.8 53 6.9 ESE 15 26 8 14 1009.3 1009.3 0.2
20/01:30pm 29.2 28.5 18.3 51 7.0 ESE 19 26 10 14 1009.5 1009.5 0.2
20/01:00pm 29.7 29.9 19.4 54 6.7 ESE 17 26 9 14 1009.7 1009.7 0.2
20/12:30pm 29.6 29.5 18.7 52 7.0 ESE 17 22 9 12 1010.0 1010.0 0.2
20/12:00pm 29.5 29.7 18.6 52 7.0 ESE 15 24 8 13 1010.3 1010.3 0.2
20/11:30am 29.8 30.7 17.6 48 7.7 ESE 9 15 5 8 1010.7 1010.7 0.2
20/11:00am 29.0 29.8 17.2 49 7.4 SSE 9 19 5 10 1011.0 1011.0 0.2
20/10:30am 30.1 31.6 18.8 50 7.3 S 9 19 5 10 1011.3 1011.3 0.2
20/10:00am 28.8 29.5 17.0 49 7.4 SSW 9 19 5 10 1011.4 1011.4 0.2
20/09:30am 29.0 29.0 17.2 49 7.4 S 13 22 7 12 1011.4 1011.4 0.2
20/09:00am 28.2 29.2 18.6 56 6.2 SSW 11 19 6 10 1011.5 1011.5 3.2
20/08:30am 26.3 29.0 20.6 71 3.7 S 7 15 4 8 1011.5 1011.5 3.2
20/08:00am 26.0 28.3 19.9 69 4.0 SW 7 11 4 6 1011.4 1011.4 3.2
20/07:30am 26.2 29.5 21.4 75 3.2 W 6 11 3 6 1011.0 1011.0 3.2
20/07:00am 23.7 28.3 22.5 93 0.8 W 2 7 1 4 1010.7 1010.7 3.2
20/06:30am 23.2 28.2 22.5 96 0.5 CALM 0 0 0 0 1010.3 1010.3 3.2
20/06:00am 22.9 26.4 22.2 96 0.5 W 7 11 4 6 1009.6 1009.6 3.2
20/05:30am 23.2 26.6 22.0 93 0.8 NW 7 9 4 5 1008.5 1008.5 3.2
20/05:00am 23.1 27.0 22.9 99 0.1 NNE 7 9 4 5 1008.1 1008.1 3.2
20/04:30am 23.3 27.6 23.3 100 0.0 NNW 6 7 3 4 1007.8 1007.8 3.2
20/04:00am 23.2 27.4 23.2 100 0.0 NNW 6 7 3 4 1007.7 1007.7 3.2
20/03:30am 23.5 28.7 23.5 100 0.0 NNW 2 6 1 3 1007.4 1007.4 3.2
20/03:00am 23.5 28.9 23.3 99 0.1 CALM 0 0 0 0 1007.8 1007.8 3.2
20/02:30am 23.4 28.7 23.1 98 0.2 CALM 0 0 0 0 1008.1 1008.1 3.2
20/02:00am 23.6 29.0 23.3 98 0.2 CALM 0 0 0 0 1008.8 1008.8 3.2
20/01:30am 23.7 28.8 23.4 98 0.2 SSW 2 7 1 4 1008.7 1008.7 3.2
20/01:00am 23.6 28.3 23.4 99 0.1 SW 4 7 2 4 1008.8 1008.8 3.2
20/12:30am 23.5 28.2 23.3 99 0.1 WSW 4 9 2 5 1009.1 1009.1 3.2
20/12:00am 23.8 29.4 23.6 99 0.1 CALM 0 0 0 0 1009.1 1009.1 3.2
 
Date/Time
EST
Temp
°C
App
Temp
°C
Dew
Point
°C
Rel
Hum
%
Delta-T
°C
Wind Press
QNH
hPa
Press
MSL
hPa
Rain since
9am
mm
Dir  Spd
km/h
Gust
km/h
Spd
kts
Gust
kts
19/11:30pm 23.5 28.9 23.3 99 0.1 CALM 0 0 0 0 1009.0 1009.0 3.0
19/11:00pm 23.5 28.6 23.3 99 0.1 NW 2 6 1 3 1009.3 1009.3 3.0
19/10:30pm 23.6 29.1 23.4 99 0.1 CALM 0 4 0 2 1008.9 1008.9 3.0
19/10:00pm 23.7 29.2 23.4 98 0.2 CALM 0 0 0 0 1009.2 1009.2 2.0
19/09:30pm 23.7 28.4 23.4 98 0.2 WSW 4 9 2 5 1009.3 1009.3 2.0
19/09:00pm 23.6 27.9 23.3 98 0.2 SSW 6 7 3 4 1009.2 1009.2 2.0
19/08:30pm 23.7 28.4 23.4 98 0.2 SW 4 7 2 4 1009.3 1009.3 2.0
19/08:00pm 23.7 27.4 23.2 97 0.3 S 9 13 5 7 1008.1 1008.1 1.6
19/07:30pm 23.6 27.7 22.9 96 0.5 SSE 6 11 3 6 1007.9 1007.9 1.6
19/07:00pm 24.0 27.6 23.0 94 0.7 SSW 9 17 5 9 1008.1 1008.1 1.0

Other Formats:

Comma delimited format used in spreadsheet applications
http://www.bom.gov.au/fwo/IDQ60801/IDQ60801.94570.axf

JavaScript Object Notation format (JSON) in row-major order
http://www.bom.gov.au/fwo/IDQ60801/IDQ60801.94570.json